createdAt,value
2019-04-21T00:02:39.708Z,12.10
2019-04-21T00:08:12.816Z,15.57
2019-04-21T00:12:56.120Z,15.00
2019-04-21T00:17:56.048Z,21.03
2019-04-21T00:23:10.213Z,16.77
2019-04-21T00:28:16.914Z,18.00
2019-04-21T00:33:09.067Z,17.87
2019-04-21T00:38:31.162Z,17.73
2019-04-21T00:43:25.278Z,17.33
2019-04-21T00:48:34.420Z,17.07
2019-04-21T00:53:53.486Z,19.60
2019-04-21T00:58:49.995Z,17.60
2019-04-21T01:03:51.971Z,17.70
2019-04-21T01:08:48.919Z,17.33
2019-04-21T01:14:00.634Z,16.50
2019-04-21T01:18:57.725Z,16.70
2019-04-21T01:23:42.268Z,16.30
2019-04-21T01:29:00.179Z,15.43
2019-04-21T01:34:08.814Z,14.17
2019-04-21T01:39:14.933Z,14.67
2019-04-21T01:44:23.863Z,13.80
2019-04-21T01:49:11.454Z,17.07
2019-04-21T01:54:45.545Z,14.17
2019-04-21T01:59:35.575Z,15.30
2019-04-21T02:04:57.568Z,14.93
2019-04-21T02:09:50.723Z,16.30
2019-04-21T02:15:06.367Z,13.27
2019-04-21T02:19:56.127Z,15.33
2019-04-21T02:25:10.846Z,13.13
2019-04-21T02:30:12.183Z,10.40
2019-04-21T02:35:30.720Z,11.27
2019-04-21T02:50:31.842Z,12.60
2019-04-21T02:55:28.831Z,10.70
2019-04-21T03:00:55.540Z,10.50
2019-04-21T03:16:22.997Z,13.03
2019-04-21T03:26:27.476Z,13.37
2019-04-21T03:37:00.401Z,13.23
2019-04-21T03:41:44.019Z,12.93
2019-04-21T03:46:41.319Z,13.63
2019-04-21T03:51:49.920Z,12.33
2019-04-21T03:57:06.061Z,13.80
2019-04-21T04:02:06.533Z,13.57
2019-04-21T04:07:39.738Z,15.57
2019-04-21T04:12:30.074Z,12.13
2019-04-21T04:27:53.135Z,11.67
2019-04-21T04:43:00.102Z,14.43
2019-04-21T04:47:58.366Z,11.97
2019-04-21T04:53:07.422Z,12.00
2019-04-21T05:03:14.939Z,11.13
2019-04-21T05:08:31.617Z,13.63
2019-04-21T05:13:21.428Z,13.17
2019-04-21T05:18:28.290Z,17.17
2019-04-21T05:23:11.765Z,12.33
2019-04-21T05:28:12.473Z,13.27
2019-04-21T05:33:34.367Z,13.20
2019-04-21T05:38:50.548Z,14.40
2019-04-21T05:43:51.670Z,18.97
2019-04-21T05:49:04.550Z,17.60
2019-04-21T05:54:14.753Z,19.30
2019-04-21T05:59:07.956Z,17.00
2019-04-21T06:04:16.856Z,15.40
2019-04-21T06:09:19.036Z,16.90
2019-04-21T06:14:25.147Z,15.47
2019-04-21T06:19:30.654Z,15.40
2019-04-21T06:24:33.804Z,14.00
2019-04-21T06:29:31.510Z,15.83
2019-04-21T06:34:51.776Z,16.67
2019-04-21T06:39:54.045Z,13.53
2019-04-21T06:44:51.232Z,14.50
2019-04-21T06:49:45.667Z,13.57
2019-04-21T06:54:46.902Z,14.20
2019-04-21T06:59:51.251Z,14.07
2019-04-21T07:04:54.853Z,16.93
2019-04-21T07:15:19.793Z,12.83
2019-04-21T07:20:07.194Z,11.10
2019-04-21T07:25:10.530Z,11.40
2019-04-21T07:30:12.947Z,11.97
2019-04-21T07:35:15.041Z,13.53
2019-04-21T07:40:15.136Z,12.43
2019-04-21T07:45:20.602Z,14.23
2019-04-21T07:50:35.202Z,10.13
2019-04-21T07:55:33.962Z,11.63
2019-04-21T08:00:51.467Z,11.77
2019-04-21T08:05:47.199Z,11.87
2019-04-21T08:10:47.148Z,11.67
2019-04-21T08:15:52.993Z,7.97
2019-04-21T08:20:53.372Z,7.53
2019-04-21T08:31:01.401Z,6.20
2019-04-21T08:36:17.727Z,7.70
2019-04-21T08:41:08.178Z,5.60
2019-04-21T08:46:13.889Z,10.70
2019-04-21T08:51:30.239Z,9.93
2019-04-21T08:56:40.129Z,4.15
2019-04-21T09:01:50.759Z,8.63
2019-04-21T09:11:59.730Z,4.08
2019-04-21T09:16:56.403Z,6.80
2019-04-21T09:22:20.799Z,7.75
2019-04-21T09:27:03.500Z,8.78
2019-04-21T09:31:55.824Z,7.85
2019-04-21T09:37:13.989Z,6.75
2019-04-21T09:42:02.821Z,8.00
2019-04-21T09:47:05.154Z,5.22
2019-04-21T09:52:15.099Z,4.50
2019-04-21T09:57:24.380Z,12.20
2019-04-21T10:02:18.231Z,5.80
2019-04-21T10:07:26.378Z,4.17
2019-04-21T10:12:20.564Z,15.00
2019-04-21T10:17:29.650Z,7.78
2019-04-21T10:22:31.217Z,4.17
2019-04-21T10:27:32.803Z,13.50
2019-04-21T10:32:36.421Z,4.50
2019-04-21T11:32:47.791Z,3.12
2019-04-21T11:37:50.317Z,3.52
2019-04-21T11:42:53.560Z,3.77
2019-04-21T11:48:18.684Z,3.60
2019-04-21T11:53:21.047Z,2.90
2019-04-21T11:58:23.659Z,6.08
2019-04-21T12:03:25.443Z,2.92
2019-04-21T12:08:34.353Z,4.53
2019-04-21T12:13:32.088Z,3.12
2019-04-21T12:18:34.064Z,3.17
2019-04-21T12:23:36.472Z,6.15
2019-04-21T12:28:39.699Z,2.92
2019-04-21T12:34:07.893Z,5.42
2019-04-21T12:39:12.804Z,2.60
2019-04-21T12:44:14.918Z,4.75
2019-04-21T12:49:17.649Z,2.42
2019-04-21T12:54:19.717Z,2.37
2019-04-21T12:59:21.356Z,2.55
2019-04-21T13:04:23.855Z,2.33
2019-04-21T13:09:28.459Z,3.40
2019-04-21T13:14:29.624Z,4.47
2019-04-21T13:19:31.549Z,4.80
2019-04-21T13:24:33.686Z,3.12
2019-04-21T13:29:36.446Z,1.70
2019-04-21T13:34:38.176Z,2.50
2019-04-21T13:40:20.687Z,2.33
2019-04-21T13:45:02.967Z,2.10
2019-04-21T13:50:07.160Z,2.27
2019-04-21T13:55:09.635Z,3.05
2019-04-21T14:00:13.246Z,4.17
2019-04-21T14:05:15.879Z,3.22
2019-04-21T14:10:18.054Z,2.60
2019-04-21T14:15:20.304Z,3.00
2019-04-21T14:20:22.074Z,2.10
2019-04-21T14:25:23.933Z,3.27
2019-04-21T14:30:26.279Z,2.80
2019-04-21T14:35:29.370Z,2.50
2019-04-21T14:40:33.347Z,1.90
2019-04-21T14:45:46.001Z,1.82
2019-04-21T14:50:55.282Z,1.92
2019-04-21T14:55:57.485Z,2.37
2019-04-21T15:01:02.072Z,2.12
2019-04-21T15:06:05.412Z,2.35
2019-04-21T15:11:08.609Z,2.35
2019-04-21T15:16:11.032Z,3.17
2019-04-21T15:21:13.325Z,3.58
2019-04-21T15:26:15.054Z,2.25
2019-04-21T15:31:23.890Z,1.65
2019-04-21T15:36:20.992Z,2.75
2019-04-21T15:41:22.740Z,4.72
2019-04-21T15:46:24.869Z,3.15
2019-04-21T15:51:26.483Z,1.82
2019-04-21T15:56:35.059Z,2.27
2019-04-21T16:01:48.445Z,2.60
2019-04-21T16:06:50.086Z,5.58
2019-04-21T16:11:51.706Z,3.47
2019-04-21T16:16:53.715Z,2.05
2019-04-21T16:21:56.743Z,2.47
2019-04-21T16:27:02.824Z,2.60
2019-04-21T16:32:02.124Z,5.85
2019-04-21T16:37:03.913Z,2.85
2019-04-21T16:42:08.307Z,2.95
2019-04-21T16:47:09.700Z,7.10
2019-04-21T16:52:20.856Z,8.03
2019-04-21T16:57:28.030Z,2.17
2019-04-21T17:02:30.386Z,2.70
2019-04-21T17:07:32.429Z,3.58
2019-04-21T17:12:35.554Z,3.33
2019-04-21T17:17:59.989Z,2.87
2019-04-21T17:22:41.734Z,5.42
2019-04-21T17:27:44.870Z,5.12
2019-04-21T17:32:49.766Z,3.85
2019-04-21T17:37:50.215Z,4.37
2019-04-21T17:43:01.547Z,2.42
2019-04-21T17:48:01.298Z,4.15
2019-04-21T17:53:10.589Z,4.33
2019-04-21T17:58:22.070Z,5.67
2019-04-21T18:03:43.643Z,7.30
2019-04-21T18:08:38.715Z,12.00
2019-04-21T18:13:22.995Z,4.40
2019-04-21T18:18:23.534Z,4.25
2019-04-21T18:23:42.883Z,3.83
2019-04-21T18:28:35.008Z,3.92
2019-04-21T18:33:42.218Z,4.97
2019-04-21T18:39:10.257Z,4.65
2019-04-21T18:44:28.172Z,7.50
2019-04-21T18:49:11.419Z,7.10
2019-04-21T18:54:37.119Z,4.17
2019-04-21T18:59:31.510Z,5.20
2019-04-21T19:04:29.340Z,7.10
2019-04-21T19:14:52.114Z,6.40
2019-04-21T19:20:04.693Z,8.80
2019-04-21T19:24:59.766Z,4.95
2019-04-21T19:30:23.381Z,4.72
2019-04-21T19:34:49.690Z,4.83
2019-04-21T19:40:03.594Z,4.93
2019-04-21T19:45:11.878Z,6.37
2019-04-21T19:50:15.828Z,5.40
2019-04-21T19:55:02.384Z,10.68
2019-04-21T20:00:07.446Z,8.10
2019-04-21T20:05:13.592Z,5.85
2019-04-21T20:10:32.808Z,8.08
2019-04-21T20:15:41.537Z,5.80
2019-04-21T20:20:21.273Z,6.83
2019-04-21T20:25:24.949Z,12.03
2019-04-21T20:30:42.292Z,7.10
2019-04-21T20:35:57.218Z,7.92
2019-04-21T20:40:41.267Z,5.58
2019-04-21T20:45:59.353Z,4.37
2019-04-21T20:51:03.187Z,4.47
2019-04-21T20:55:58.203Z,4.58
2019-04-21T21:01:22.545Z,7.20
2019-04-21T21:06:03.742Z,5.37
2019-04-21T21:11:08.008Z,5.20
2019-04-21T21:16:20.151Z,5.57
2019-04-21T21:21:20.728Z,5.37
2019-04-21T21:26:25.329Z,4.80
2019-04-21T21:31:35.086Z,8.08
2019-04-21T21:36:31.792Z,18.67
2019-04-21T21:41:26.557Z,21.00
2019-04-21T21:46:42.713Z,13.03
2019-04-21T21:51:48.408Z,9.90
2019-04-21T21:56:32.578Z,5.53
2019-04-21T22:01:39.869Z,11.95
2019-04-21T22:06:47.140Z,9.53
2019-04-21T22:11:42.204Z,4.77
2019-04-21T22:17:00.989Z,5.00
2019-04-21T22:22:07.727Z,6.07
2019-04-21T22:26:52.475Z,5.27
2019-04-21T22:32:01.377Z,7.03
2019-04-21T22:37:14.343Z,6.17
2019-04-21T22:42:11.158Z,7.63
2019-04-21T22:47:12.072Z,5.10
2019-04-21T22:52:15.134Z,4.57
2019-04-21T22:57:17.652Z,5.57
2019-04-21T23:02:22.639Z,4.37
2019-04-21T23:07:24.339Z,5.27
2019-04-21T23:12:31.164Z,6.23
2019-04-21T23:17:50.748Z,4.33
2019-04-21T23:23:00.849Z,5.23
2019-04-21T23:27:56.191Z,4.70
2019-04-21T23:32:50.438Z,5.13
2019-04-21T23:37:51.959Z,6.30
2019-04-21T23:42:47.244Z,5.47
2019-04-21T23:48:05.013Z,4.83
2019-04-21T23:52:53.321Z,4.60
2019-04-21T23:58:02.320Z,5.43
